Time;durP1;ratioP1;P1;durP2;ratioP2;P2;SDS_P1;SDS_P2;PMS_P1;PMS_P2;Temp;Humidity;BMP_temperature;BMP_pressure;BME280_temperature;BME280_humidity;BME280_pressure;Samples;Min_cycle;Max_cycle;Signal;HPM_P1;HPM_P2
2024/02/03 00:02:12;;;;;;;8.68;5.10;;;10.70;98.20;;;;;;4985791;28;20030;-67
2024/02/03 00:04:39;;;;;;;8.45;4.60;;;10.70;98.20;;;;;;4985270;28;20104;-68
2024/02/03 00:07:04;;;;;;;8.13;4.22;;;10.70;98.20;;;;;;4985280;28;20030;-67
2024/02/03 00:09:30;;;;;;;8.05;4.00;;;10.70;98.20;;;;;;4988027;28;20499;-67
2024/02/03 00:11:55;;;;;;;7.35;4.22;;;10.70;98.20;;;;;;4987583;28;20039;-67
2024/02/03 00:14:21;;;;;;;7.82;4.70;;;10.70;98.20;;;;;;4989593;28;20018;-67
2024/02/03 00:16:46;;;;;;;6.53;4.00;;;10.70;98.20;;;;;;4988252;28;20393;-67
2024/02/03 00:19:12;;;;;;;6.47;4.22;;;10.70;98.20;;;;;;4988555;28;20029;-67
2024/02/03 00:21:38;;;;;;;7.05;4.47;;;10.70;98.20;;;;;;4989155;28;20045;-68
2024/02/03 00:24:04;;;;;;;6.13;4.32;;;10.70;98.20;;;;;;4988642;28;20061;-68
2024/02/03 00:26:29;;;;;;;6.70;3.70;;;10.70;98.30;;;;;;4989048;28;20030;-68
2024/02/03 00:28:55;;;;;;;6.43;3.47;;;10.80;98.20;;;;;;4990914;28;20022;-68
2024/02/03 00:31:21;;;;;;;5.45;3.35;;;10.80;98.20;;;;;;4991118;28;20092;-68
2024/02/03 00:33:46;;;;;;;7.57;3.67;;;10.80;98.20;;;;;;4988794;28;20023;-68
2024/02/03 00:36:25;;;;;;;5.80;3.58;;;10.80;98.10;;;;;;4990915;28;20022;-68
2024/02/03 00:38:51;;;;;;;6.57;3.80;;;10.90;98.10;;;;;;4987022;28;20030;-68
2024/02/03 00:41:17;;;;;;;5.63;3.35;;;10.90;98.10;;;;;;4987958;28;20033;-68
2024/02/03 00:43:43;;;;;;;6.80;3.97;;;10.90;98.00;;;;;;4988164;28;20382;-68
2024/02/03 00:46:10;;;;;;;6.22;3.78;;;10.90;98.00;;;;;;4990784;28;20026;-68
2024/02/03 00:48:36;;;;;;;5.90;3.92;;;10.80;98.00;;;;;;4989083;28;20030;-68
2024/02/03 00:51:02;;;;;;;7.18;4.30;;;10.90;98.10;;;;;;4990394;28;20026;-67
2024/02/03 00:53:27;;;;;;;6.65;4.20;;;10.90;98.00;;;;;;4989450;28;20112;-68
2024/02/03 00:55:53;;;;;;;7.60;4.53;;;10.90;98.00;;;;;;4990057;28;20034;-68
2024/02/03 00:58:19;;;;;;;7.03;4.53;;;10.90;97.90;;;;;;4987723;28;20098;-70
2024/02/03 01:00:44;;;;;;;6.55;4.05;;;10.90;97.90;;;;;;4989145;28;20026;-68
2024/02/03 01:03:10;;;;;;;6.95;4.20;;;10.90;97.90;;;;;;4986732;28;20030;-67
2024/02/03 01:05:37;;;;;;;7.57;4.53;;;10.90;97.90;;;;;;4987059;28;20481;-66
2024/02/03 01:08:03;;;;;;;6.00;3.97;;;10.90;97.90;;;;;;4988935;28;20085;-67
2024/02/03 01:10:29;;;;;;;7.88;4.18;;;10.90;97.90;;;;;;4988188;28;20468;-67
2024/02/03 01:12:54;;;;;;;9.30;5.82;;;10.90;97.90;;;;;;4988694;28;20019;-67
2024/02/03 01:15:20;;;;;;;7.22;4.70;;;10.90;97.90;;;;;;4987205;28;20018;-68
2024/02/03 01:17:46;;;;;;;9.43;5.80;;;10.90;97.90;;;;;;4987889;28;20374;-68
2024/02/03 01:20:11;;;;;;;8.35;4.65;;;10.90;97.90;;;;;;4985593;28;20558;-67
2024/02/03 01:22:37;;;;;;;5.55;3.35;;;10.90;97.90;;;;;;4986934;28;20032;-68
2024/02/03 01:25:03;;;;;;;6.93;3.80;;;10.90;97.90;;;;;;4988743;28;20496;-68
2024/02/03 01:27:29;;;;;;;6.15;3.60;;;10.90;97.80;;;;;;4988585;28;20033;-68
2024/02/03 01:29:56;;;;;;;7.22;4.80;;;10.90;97.80;;;;;;4988774;28;20058;-67
2024/02/03 01:32:22;;;;;;;7.35;3.95;;;10.90;97.80;;;;;;4988620;28;20453;-67
2024/02/03 01:34:47;;;;;;;5.18;3.65;;;10.90;97.80;;;;;;4992602;28;20049;-67
2024/02/03 01:37:13;;;;;;;4.10;3.08;;;10.90;97.80;;;;;;4994859;28;20045;-68
2024/02/03 01:39:40;;;;;;;6.82;3.83;;;10.90;97.80;;;;;;4991437;28;20030;-68
2024/02/03 01:42:06;;;;;;;6.65;3.97;;;10.90;97.80;;;;;;4995989;28;20030;-67
2024/02/03 01:44:32;;;;;;;5.53;3.35;;;10.90;97.80;;;;;;4993269;28;20030;-69
2024/02/03 01:46:59;;;;;;;9.13;4.60;;;10.90;97.80;;;;;;4996347;28;20397;-68
2024/02/03 01:49:27;;;;;;;5.70;3.90;;;10.90;97.90;;;;;;4994225;28;20089;-70
2024/02/03 01:51:53;;;;;;;7.93;3.90;;;10.90;97.90;;;;;;4994969;28;20034;-68
2024/02/03 01:54:19;;;;;;;6.28;3.70;;;10.90;97.80;;;;;;4987930;28;20033;-68
2024/02/03 01:56:48;;;;;;;6.57;3.83;;;10.90;97.80;;;;;;4988580;28;20416;-69
2024/02/03 01:59:13;;;;;;;5.80;3.72;;;10.90;97.80;;;;;;4986547;28;20114;-68
2024/02/03 02:01:39;;;;;;;5.68;3.40;;;11.00;97.80;;;;;;4988669;28;20109;-68
2024/02/03 02:04:05;;;;;;;5.22;3.30;;;11.00;97.80;;;;;;4987888;28;20085;-67
2024/02/03 02:06:30;;;;;;;5.07;3.22;;;10.90;97.80;;;;;;4987636;28;20033;-69
2024/02/03 02:08:56;;;;;;;5.00;3.20;;;11.00;97.80;;;;;;4987417;28;20034;-68
2024/02/03 02:11:24;;;;;;;4.85;3.08;;;11.00;97.80;;;;;;4987460;28;20035;-68
2024/02/03 02:13:50;;;;;;;4.32;2.80;;;11.00;97.80;;;;;;4990564;28;20054;-70
2024/02/03 02:16:15;;;;;;;6.55;3.60;;;11.00;97.80;;;;;;4986779;28;20053;-67
2024/02/03 02:18:41;;;;;;;5.78;3.30;;;11.00;97.80;;;;;;4988310;28;20030;-68
2024/02/03 02:21:07;;;;;;;6.25;3.17;;;11.00;97.70;;;;;;4987502;28;20031;-67
2024/02/03 02:23:32;;;;;;;5.00;3.20;;;11.00;97.70;;;;;;4986746;28;20187;-67
2024/02/03 02:25:58;;;;;;;4.47;2.70;;;11.00;97.70;;;;;;4987739;28;20425;-67
2024/02/03 02:28:24;;;;;;;4.00;2.65;;;11.00;97.70;;;;;;4987176;28;20030;-68
2024/02/03 02:30:50;;;;;;;4.88;2.70;;;11.00;97.70;;;;;;4987943;28;20085;-68
2024/02/03 02:33:16;;;;;;;3.88;2.60;;;11.00;97.60;;;;;;4991401;28;20022;-68
2024/02/03 02:35:43;;;;;;;4.35;2.45;;;11.00;97.70;;;;;;4992152;28;20049;-68
2024/02/03 02:38:09;;;;;;;4.40;2.70;;;11.00;97.70;;;;;;4989143;28;20123;-68
2024/02/03 02:40:34;;;;;;;4.22;2.70;;;11.00;97.70;;;;;;4993225;28;20026;-69
2024/02/03 02:43:01;;;;;;;4.10;2.58;;;11.00;97.80;;;;;;4993972;28;20022;-68
2024/02/03 02:45:26;;;;;;;6.28;3.03;;;11.00;97.80;;;;;;4990820;28;20026;-68
2024/02/03 02:47:52;;;;;;;4.90;2.45;;;10.90;97.90;;;;;;4991811;28;20049;-69
2024/02/03 02:50:19;;;;;;;4.70;2.47;;;11.00;97.90;;;;;;4991288;28;20504;-69
2024/02/03 02:52:44;;;;;;;3.72;2.40;;;11.00;98.00;;;;;;4991778;28;20045;-69
2024/02/03 02:55:10;;;;;;;3.55;2.38;;;11.00;98.00;;;;;;4991147;28;20472;-68
2024/02/03 02:57:35;;;;;;;4.85;2.47;;;11.00;98.00;;;;;;4991039;28;20373;-69
2024/02/03 03:00:02;;;;;;;4.25;2.40;;;10.90;98.00;;;;;;4991259;28;20026;-68
2024/02/03 03:02:28;;;;;;;4.18;2.10;;;10.90;98.10;;;;;;4990200;28;20030;-68
2024/02/03 03:04:53;;;;;;;4.70;2.67;;;10.90;98.10;;;;;;4989667;28;20030;-67
2024/02/03 03:07:19;;;;;;;4.53;2.30;;;11.00;98.20;;;;;;4993153;28;20027;-67
2024/02/03 03:09:45;;;;;;;4.50;2.10;;;10.90;98.20;;;;;;4992822;28;20029;-68
2024/02/03 03:12:10;;;;;;;3.22;2.30;;;10.90;98.30;;;;;;4992570;28;20122;-69
2024/02/03 03:14:36;;;;;;;2.92;1.83;;;10.90;98.30;;;;;;4990722;28;20034;-68
2024/02/03 03:17:02;;;;;;;2.40;1.77;;;10.90;98.30;;;;;;4991199;28;20026;-68
2024/02/03 03:19:27;;;;;;;5.45;2.70;;;11.00;98.30;;;;;;4991480;28;20050;-68
2024/02/03 03:21:53;;;;;;;4.28;2.55;;;11.00;98.30;;;;;;4991769;28;20468;-68
2024/02/03 03:24:18;;;;;;;5.13;3.33;;;10.90;98.30;;;;;;4989530;28;20027;-68
2024/02/03 03:26:44;;;;;;;4.78;3.35;;;10.90;98.50;;;;;;4990499;28;20077;-68
2024/02/03 03:29:11;;;;;;;3.95;2.75;;;10.90;98.60;;;;;;4991545;28;20025;-68
2024/02/03 03:31:38;;;;;;;6.35;3.40;;;10.90;98.60;;;;;;4990525;28;20023;-68
2024/02/03 03:34:03;;;;;;;5.50;2.88;;;10.80;98.80;;;;;;4991803;28;20037;-69
2024/02/03 03:36:29;;;;;;;3.85;2.00;;;10.90;98.80;;;;;;4990227;28;20042;-68
2024/02/03 03:38:54;;;;;;;2.90;1.65;;;10.90;98.80;;;;;;4988512;28;20030;-67
2024/02/03 03:41:20;;;;;;;4.00;2.35;;;10.90;98.70;;;;;;5018740;28;20038;-67
2024/02/03 03:43:47;;;;;;;3.63;2.15;;;11.00;98.70;;;;;;4994807;28;20026;-67
2024/02/03 03:46:13;;;;;;;3.38;2.15;;;10.90;98.70;;;;;;4995217;28;20029;-67
2024/02/03 03:48:38;;;;;;;6.10;2.20;;;11.00;98.80;;;;;;4993543;28;20389;-68
2024/02/03 03:51:04;;;;;;;5.40;2.42;;;11.00;98.70;;;;;;4991436;28;20393;-68
2024/02/03 03:53:30;;;;;;;3.47;2.25;;;11.00;98.70;;;;;;4990831;28;20030;-67
2024/02/03 03:55:55;;;;;;;2.97;2.60;;;11.00;98.70;;;;;;4990361;28;20051;-67
2024/02/03 03:58:21;;;;;;;3.75;2.60;;;11.00;98.70;;;;;;4988696;28;20057;-67
2024/02/03 04:00:47;;;;;;;4.15;2.22;;;11.00;98.70;;;;;;4990745;28;20034;-67
2024/02/03 04:03:13;;;;;;;5.20;3.40;;;11.00;98.70;;;;;;4993606;28;20019;-67
2024/02/03 04:05:38;;;;;;;3.92;2.67;;;11.00;98.70;;;;;;4993085;28;20381;-66
2024/02/03 04:08:06;;;;;;;4.28;2.67;;;11.00;98.70;;;;;;4992681;28;20030;-67
2024/02/03 04:10:32;;;;;;;3.83;2.40;;;11.00;98.70;;;;;;4991457;28;20044;-66
2024/02/03 04:12:57;;;;;;;4.70;2.65;;;11.00;98.70;;;;;;4995612;28;20490;-66
2024/02/03 04:15:23;;;;;;;4.07;2.40;;;11.00;98.70;;;;;;4995333;28;20045;-66
2024/02/03 04:17:50;;;;;;;3.20;2.45;;;11.00;98.70;;;;;;4991037;28;20018;-66
2024/02/03 04:20:15;;;;;;;4.47;2.90;;;11.00;98.70;;;;;;4996996;28;20108;-66
2024/02/03 04:22:41;;;;;;;5.90;2.80;;;11.00;98.80;;;;;;4996614;28;20053;-66
2024/02/03 04:25:07;;;;;;;6.07;3.08;;;11.00;98.90;;;;;;4996441;28;20465;-66
2024/02/03 04:27:33;;;;;;;3.67;2.40;;;11.00;98.90;;;;;;4994431;28;20088;-66
2024/02/03 04:29:59;;;;;;;4.40;2.28;;;11.00;99.00;;;;;;4991340;28;20437;-66
2024/02/03 04:32:25;;;;;;;3.83;2.55;;;11.00;98.90;;;;;;4990976;28;20049;-67
2024/02/03 04:34:50;;;;;;;4.88;2.30;;;11.00;98.90;;;;;;4988652;28;20108;-67
2024/02/03 04:37:16;;;;;;;3.10;2.17;;;11.00;98.80;;;;;;4990424;28;20560;-66
2024/02/03 04:39:42;;;;;;;5.00;2.70;;;11.00;98.70;;;;;;4990375;28;20113;-66
2024/02/03 04:42:08;;;;;;;3.20;2.30;;;11.10;98.80;;;;;;4993770;28;20057;-66
2024/02/03 04:44:33;;;;;;;3.05;1.80;;;11.10;98.70;;;;;;4992914;28;20034;-67
2024/02/03 04:46:59;;;;;;;3.58;2.30;;;11.10;98.70;;;;;;4990685;28;20392;-67
2024/02/03 04:49:24;;;;;;;6.22;2.97;;;11.10;98.70;;;;;;4992663;28;20034;-66
2024/02/03 04:51:51;;;;;;;6.15;3.00;;;11.10;98.70;;;;;;4994052;28;20026;-66
2024/02/03 04:54:17;;;;;;;3.75;2.30;;;11.10;98.70;;;;;;4995591;28;20491;-67
2024/02/03 04:56:42;;;;;;;5.45;2.10;;;11.10;98.60;;;;;;4995504;28;20029;-66
2024/02/03 04:59:08;;;;;;;4.88;2.55;;;11.10;98.60;;;;;;4993905;28;20033;-67
2024/02/03 05:01:35;;;;;;;3.55;2.22;;;11.10;98.60;;;;;;4999248;28;20744;-67
2024/02/03 05:04:00;;;;;;;6.57;2.50;;;11.10;98.60;;;;;;4988273;28;20065;-66
2024/02/03 05:06:26;;;;;;;7.38;4.05;;;11.10;98.60;;;;;;4991481;28;20045;-67
2024/02/03 05:08:53;;;;;;;3.47;2.10;;;11.10;98.60;;;;;;4990746;28;20532;-68
2024/02/03 05:11:19;;;;;;;3.90;2.03;;;11.10;98.60;;;;;;4987532;28;20033;-68
2024/02/03 05:13:45;;;;;;;3.05;2.08;;;11.10;98.60;;;;;;4989478;28;20033;-68
2024/02/03 05:16:10;;;;;;;3.30;1.80;;;11.10;98.60;;;;;;4988813;28;20121;-68
2024/02/03 05:18:36;;;;;;;3.72;1.50;;;11.10;98.50;;;;;;4990234;28;20027;-69
2024/02/03 05:21:01;;;;;;;2.25;1.60;;;11.10;98.50;;;;;;4991068;28;20041;-68
2024/02/03 05:23:27;;;;;;;2.65;1.60;;;11.10;98.60;;;;;;4990225;28;20096;-68
2024/02/03 05:25:52;;;;;;;3.45;2.00;;;11.10;98.60;;;;;;4995094;28;20120;-68
2024/02/03 05:28:18;;;;;;;2.35;1.70;;;11.10;98.60;;;;;;4990732;28;20065;-68
2024/02/03 05:30:43;;;;;;;5.40;2.40;;;11.10;98.50;;;;;;4990308;28;20078;-68
2024/02/03 05:33:09;;;;;;;4.32;2.30;;;11.10;98.50;;;;;;4994000;28;20031;-67
2024/02/03 05:35:35;;;;;;;2.97;2.22;;;11.10;98.60;;;;;;4994549;28;20033;-67
2024/02/03 05:38:00;;;;;;;2.63;1.65;;;11.10;98.60;;;;;;4993813;28;20025;-68
2024/02/03 05:40:26;;;;;;;3.75;1.98;;;11.10;98.60;;;;;;4995668;28;20120;-68
2024/02/03 05:42:52;;;;;;;2.53;1.50;;;11.10;98.60;;;;;;4996772;28;20026;-68
2024/02/03 05:45:19;;;;;;;3.50;1.70;;;11.10;98.50;;;;;;4996060;28;20704;-65
2024/02/03 05:47:45;;;;;;;2.45;1.60;;;11.00;98.50;;;;;;4989717;28;20023;-67
2024/02/03 05:50:10;;;;;;;2.08;1.55;;;11.10;98.60;;;;;;4990467;28;20022;-67
2024/02/03 05:52:36;;;;;;;2.75;1.63;;;11.10;98.50;;;;;;4992834;28;20067;-67
2024/02/03 05:55:02;;;;;;;2.20;1.70;;;11.10;98.50;;;;;;4990612;28;20666;-67
2024/02/03 05:57:27;;;;;;;2.47;1.83;;;11.20;98.50;;;;;;4992372;28;20033;-67
2024/02/03 05:59:53;;;;;;;2.90;1.60;;;11.20;98.40;;;;;;4992840;28;20538;-67
2024/02/03 06:02:20;;;;;;;4.07;1.67;;;11.20;98.40;;;;;;4989759;28;20034;-66
2024/02/03 06:04:46;;;;;;;3.42;1.60;;;11.20;98.30;;;;;;4989375;28;20046;-67
2024/02/03 06:07:12;;;;;;;2.90;1.50;;;11.20;98.30;;;;;;4992689;28;20101;-67
2024/02/03 06:09:38;;;;;;;1.63;1.20;;;11.20;98.30;;;;;;4994621;28;20117;-67
2024/02/03 06:12:04;;;;;;;3.58;1.95;;;11.20;98.30;;;;;;4995231;28;20389;-66
2024/02/03 06:14:29;;;;;;;3.17;2.20;;;11.20;98.30;;;;;;4994951;28;20058;-67
2024/02/03 06:16:55;;;;;;;2.88;1.60;;;11.20;98.30;;;;;;4993318;28;20472;-66
2024/02/03 06:19:21;;;;;;;2.35;1.58;;;11.20;98.20;;;;;;4996595;28;20049;-66
2024/02/03 06:21:47;;;;;;;3.63;1.40;;;11.20;98.20;;;;;;4997479;28;20033;-66
2024/02/03 06:24:13;;;;;;;3.15;1.23;;;11.20;98.20;;;;;;4992930;28;20034;-67
2024/02/03 06:26:38;;;;;;;2.38;1.30;;;11.20;98.20;;;;;;4990532;28;20120;-66
2024/02/03 06:29:06;;;;;;;3.90;1.70;;;11.30;98.20;;;;;;4991897;28;20034;-66
2024/02/03 06:31:32;;;;;;;4.25;1.90;;;11.20;98.10;;;;;;4996460;28;20092;-66
2024/02/03 06:33:57;;;;;;;2.17;1.40;;;11.20;98.10;;;;;;4995280;28;20019;-66
2024/02/03 06:36:23;;;;;;;3.35;1.80;;;11.20;98.10;;;;;;4997118;28;20047;-66
2024/02/03 06:38:49;;;;;;;2.67;1.77;;;11.20;98.10;;;;;;4993850;28;20094;-66
2024/02/03 06:41:18;;;;;;;4.88;1.92;;;11.20;98.10;;;;;;4997214;28;20054;-66
2024/02/03 06:43:44;;;;;;;4.30;2.20;;;11.20;98.10;;;;;;4996599;28;20026;-66
2024/02/03 06:46:11;;;;;;;2.80;1.90;;;11.20;98.10;;;;;;4991464;28;20034;-66
2024/02/03 06:48:36;;;;;;;3.40;2.30;;;11.20;98.10;;;;;;4989789;28;20025;-66
2024/02/03 06:51:02;;;;;;;5.20;3.15;;;11.20;98.10;;;;;;4992064;28;20121;-66
2024/02/03 06:53:28;;;;;;;3.25;2.10;;;11.20;98.10;;;;;;4995763;28;20105;-67
2024/02/03 06:55:54;;;;;;;3.72;2.28;;;11.20;98.10;;;;;;4996565;28;20565;-67
2024/02/03 06:58:19;;;;;;;3.72;2.15;;;11.20;98.10;;;;;;4996837;28;20072;-67
2024/02/03 07:00:45;;;;;;;3.00;1.90;;;11.20;98.10;;;;;;4993573;28;20141;-67
2024/02/03 07:03:11;;;;;;;3.70;1.88;;;11.20;98.10;;;;;;4994595;28;20026;-68
2024/02/03 07:05:38;;;;;;;6.40;2.50;;;11.20;98.10;;;;;;4996607;28;20053;-67
2024/02/03 07:08:03;;;;;;;4.35;2.20;;;11.20;98.10;;;;;;4992304;28;20026;-66
2024/02/03 07:10:29;;;;;;;7.35;3.00;;;11.20;98.10;;;;;;4990307;28;20400;-67
2024/02/03 07:12:55;;;;;;;4.25;2.35;;;11.20;98.10;;;;;;4992836;28;20385;-67
2024/02/03 07:15:20;;;;;;;3.67;2.45;;;11.20;98.10;;;;;;4991969;28;20659;-67
2024/02/03 07:17:46;;;;;;;4.13;2.33;;;11.20;98.20;;;;;;4991783;28;20023;-67
2024/02/03 07:20:12;;;;;;;3.13;2.22;;;11.20;98.20;;;;;;4992772;28;20053;-67
2024/02/03 07:22:38;;;;;;;3.15;2.15;;;11.20;98.10;;;;;;4995458;28;20023;-67
2024/02/03 07:25:04;;;;;;;4.07;2.38;;;11.20;98.20;;;;;;4994923;28;20555;-67
2024/02/03 07:27:30;;;;;;;4.72;2.90;;;11.20;98.20;;;;;;4989847;28;20034;-67
2024/02/03 07:29:55;;;;;;;3.58;2.30;;;11.20;98.20;;;;;;4991765;28;20092;-67
2024/02/03 07:32:21;;;;;;;6.20;2.58;;;11.20;98.10;;;;;;4995283;28;20038;-66
2024/02/03 07:34:47;;;;;;;4.38;2.80;;;11.20;98.10;;;;;;4992506;28;20109;-67
2024/02/03 07:37:13;;;;;;;3.58;2.40;;;11.20;98.10;;;;;;4991202;28;20022;-67
2024/02/03 07:39:38;;;;;;;4.43;2.05;;;11.20;98.10;;;;;;4992058;28;20593;-67
2024/02/03 07:42:05;;;;;;;4.53;2.53;;;11.20;98.10;;;;;;4993067;28;20034;-68
2024/02/03 07:44:31;;;;;;;5.97;2.50;;;11.10;98.10;;;;;;4992775;28;20486;-67
2024/02/03 07:46:58;;;;;;;8.73;3.00;;;11.20;98.10;;;;;;4989588;28;20104;-67
2024/02/03 07:49:24;;;;;;;4.18;2.70;;;11.10;98.10;;;;;;4989958;28;20117;-67
2024/02/03 07:51:49;;;;;;;4.70;2.25;;;11.10;98.30;;;;;;4991119;28;20130;-67
2024/02/03 07:54:15;;;;;;;3.40;2.22;;;11.10;98.30;;;;;;4990089;28;20034;-67
2024/02/03 07:56:40;;;;;;;6.10;3.03;;;11.10;98.30;;;;;;4991291;28;20031;-68
2024/02/03 07:59:06;;;;;;;3.90;2.50;;;11.10;98.30;;;;;;4990071;28;20073;-67
2024/02/03 08:01:31;;;;;;;4.60;3.17;;;11.20;98.30;;;;;;4987761;28;20044;-68
2024/02/03 08:03:57;;;;;;;6.65;2.70;;;11.10;98.30;;;;;;4989014;28;20040;-68
2024/02/03 08:06:22;;;;;;;4.60;2.72;;;11.10;98.30;;;;;;4989347;28;20031;-68
2024/02/03 08:08:48;;;;;;;3.13;2.15;;;11.10;98.30;;;;;;4990158;28;20030;-67
2024/02/03 08:11:14;;;;;;;2.92;2.17;;;11.10;98.40;;;;;;4990213;28;20031;-68
2024/02/03 08:13:39;;;;;;;6.50;3.28;;;11.10;98.40;;;;;;4990274;28;20478;-68
2024/02/03 08:16:07;;;;;;;4.40;3.13;;;11.10;98.40;;;;;;4989474;28;20019;-68
2024/02/03 08:18:32;;;;;;;6.63;3.38;;;11.10;98.40;;;;;;4988796;28;20026;-68
2024/02/03 08:20:58;;;;;;;6.50;3.10;;;11.10;98.40;;;;;;4989745;28;20030;-67
2024/02/03 08:23:24;;;;;;;4.40;2.78;;;11.20;98.50;;;;;;4988641;28;20044;-66
2024/02/03 08:25:50;;;;;;;4.00;3.13;;;11.20;98.40;;;;;;4994283;28;20050;-68
2024/02/03 08:28:15;;;;;;;4.82;3.00;;;11.20;98.40;;;;;;4990757;28;20034;-68
2024/02/03 08:30:41;;;;;;;8.50;3.60;;;11.20;98.40;;;;;;4989726;28;20035;-67
2024/02/03 08:33:07;;;;;;;6.10;3.35;;;11.20;98.40;;;;;;4992010;28;20042;-67
2024/02/03 08:35:33;;;;;;;4.68;2.97;;;11.20;98.40;;;;;;4992079;28;20022;-67
2024/02/03 08:37:58;;;;;;;8.15;3.55;;;11.20;98.40;;;;;;4993862;28;20036;-68
2024/02/03 08:40:24;;;;;;;6.28;3.80;;;11.20;98.30;;;;;;4992227;28;20039;-67
2024/02/03 08:42:50;;;;;;;6.70;3.60;;;11.20;98.40;;;;;;4990095;28;20026;-67
2024/02/03 08:45:16;;;;;;;4.88;2.80;;;11.20;98.40;;;;;;4992476;28;20022;-67
2024/02/03 08:47:42;;;;;;;5.32;2.88;;;11.20;98.40;;;;;;4996239;28;20030;-68
2024/02/03 08:50:08;;;;;;;5.90;2.70;;;11.30;98.30;;;;;;5002379;28;20026;-69
2024/02/03 08:52:34;;;;;;;7.40;3.45;;;11.30;98.20;;;;;;4993056;28;20768;-68
2024/02/03 08:55:00;;;;;;;6.90;3.95;;;11.20;98.20;;;;;;4993841;28;20030;-68
2024/02/03 08:57:26;;;;;;;4.78;3.13;;;11.20;98.30;;;;;;4997982;28;20022;-68
2024/02/03 08:59:51;;;;;;;5.80;3.35;;;11.30;98.30;;;;;;4998545;28;20037;-68
2024/02/03 09:02:17;;;;;;;8.82;4.50;;;11.30;98.20;;;;;;4997959;28;20050;-68
2024/02/03 09:04:43;;;;;;;6.95;3.25;;;11.30;98.20;;;;;;4994537;28;20045;-67
2024/02/03 09:07:08;;;;;;;5.93;3.40;;;11.30;98.20;;;;;;4988984;28;20037;-67
2024/02/03 09:09:34;;;;;;;7.63;2.85;;;11.40;98.10;;;;;;4991114;28;20384;-68
2024/02/03 09:12:01;;;;;;;6.78;3.25;;;11.40;98.00;;;;;;4988646;28;20078;-67
2024/02/03 09:14:27;;;;;;;6.80;3.30;;;11.40;98.10;;;;;;4986701;28;20484;-68
2024/02/03 09:16:52;;;;;;;7.30;3.33;;;11.40;98.10;;;;;;4991512;28;20026;-68
2024/02/03 09:19:18;;;;;;;5.07;2.65;;;11.40;98.10;;;;;;4990845;28;20135;-73
2024/02/03 09:21:43;;;;;;;5.53;2.75;;;11.40;98.10;;;;;;4991378;28;20034;-68
2024/02/03 09:24:09;;;;;;;5.63;2.80;;;11.50;98.00;;;;;;4991662;28;20057;-69
2024/02/03 09:26:39;;;;;;;5.60;2.83;;;11.50;98.00;;;;;;4992969;28;20489;-68
2024/02/03 09:29:08;;;;;;;6.53;2.63;;;11.50;97.90;;;;;;4992091;28;20120;-69
2024/02/03 09:31:34;;;;;;;3.63;2.38;;;11.60;97.90;;;;;;4986155;28;20022;-69
2024/02/03 09:34:04;;;;;;;3.35;2.20;;;11.60;97.90;;;;;;4988634;28;20026;-68
2024/02/03 09:36:30;;;;;;;5.43;2.80;;;11.60;97.80;;;;;;4994641;28;20022;-69
2024/02/03 09:38:56;;;;;;;4.20;2.15;;;11.60;97.70;;;;;;4992561;28;20036;-68
2024/02/03 09:41:22;;;;;;;6.40;2.30;;;11.60;97.80;;;;;;5000024;28;20452;-68
2024/02/03 09:43:48;;;;;;;5.22;2.40;;;11.60;97.80;;;;;;4992054;28;20027;-68
2024/02/03 09:46:14;;;;;;;2.58;1.88;;;11.60;97.80;;;;;;4993148;28;20509;-68
2024/02/03 09:48:40;;;;;;;4.95;2.60;;;11.60;97.80;;;;;;4991735;28;20085;-68
2024/02/03 09:51:06;;;;;;;5.00;2.20;;;11.70;97.80;;;;;;4991231;28;20416;-68
2024/02/03 09:53:32;;;;;;;7.70;3.50;;;11.70;97.80;;;;;;4987835;28;20027;-68
2024/02/03 09:55:57;;;;;;;4.22;2.55;;;11.70;97.80;;;;;;4988175;28;20022;-67
2024/02/03 09:58:26;;;;;;;4.68;2.88;;;11.70;97.70;;;;;;4993519;28;20074;-68
2024/02/03 10:00:52;;;;;;;6.53;2.72;;;11.70;97.70;;;;;;4985326;28;20080;-68
2024/02/03 10:03:19;;;;;;;3.38;2.20;;;11.70;97.80;;;;;;4986680;28;20035;-69
2024/02/03 10:05:45;;;;;;;4.50;1.90;;;11.70;97.80;;;;;;4988486;28;20082;-67
2024/02/03 10:08:10;;;;;;;4.55;2.50;;;11.80;97.80;;;;;;4988354;28;20474;-67
2024/02/03 10:10:38;;;;;;;4.68;3.47;;;11.80;97.70;;;;;;4988470;28;20035;-67
2024/02/03 10:13:04;;;;;;;5.38;3.70;;;11.80;97.60;;;;;;4987749;28;20501;-67
2024/02/03 10:15:30;;;;;;;6.60;2.90;;;11.80;97.60;;;;;;4987541;28;20113;-67
2024/02/03 10:17:58;;;;;;;3.17;2.20;;;11.80;97.60;;;;;;4991555;28;20389;-67
2024/02/03 10:20:25;;;;;;;3.75;2.10;;;11.80;97.50;;;;;;4986887;28;20018;-67
2024/02/03 10:22:51;;;;;;;5.65;3.05;;;11.90;97.50;;;;;;4987987;28;20018;-69
2024/02/03 10:25:16;;;;;;;5.18;2.70;;;11.90;97.40;;;;;;4988403;28;20018;-68
2024/02/03 10:27:42;;;;;;;4.93;2.90;;;11.90;97.40;;;;;;4989000;28;20033;-68
2024/02/03 10:30:08;;;;;;;4.35;2.00;;;11.90;97.50;;;;;;4991264;28;20029;-68
2024/02/03 10:32:34;;;;;;;4.47;2.85;;;11.90;97.50;;;;;;4991686;28;20035;-68
2024/02/03 10:35:02;;;;;;;3.00;1.85;;;11.90;97.50;;;;;;4979286;28;20661;-68
2024/02/03 10:37:27;;;;;;;4.43;2.25;;;11.90;97.50;;;;;;4985223;28;20042;-68
2024/02/03 10:39:53;;;;;;;3.97;2.20;;;11.90;97.40;;;;;;4979522;28;20023;-68
2024/02/03 10:42:23;;;;;;;5.70;2.90;;;11.90;97.40;;;;;;4983874;28;20493;-68
2024/02/03 10:44:51;;;;;;;4.45;2.30;;;11.90;97.40;;;;;;4981799;28;20065;-68
2024/02/03 10:47:23;;;;;;;3.25;2.20;;;11.90;97.40;;;;;;4986353;28;20559;-68
2024/02/03 10:49:49;;;;;;;;;;;11.90;97.40;;;;;;4984939;28;20544;-68
2024/02/03 10:52:17;;;;;;;5.15;2.35;;;11.90;97.30;;;;;;4987409;28;19976;-68
2024/02/03 10:54:46;;;;;;;6.50;3.00;;;11.90;97.40;;;;;;4983612;28;20034;-68
2024/02/03 10:57:12;;;;;;;3.13;2.25;;;11.90;97.50;;;;;;4991575;28;20057;-68
2024/02/03 10:59:38;;;;;;;3.67;2.55;;;11.90;97.40;;;;;;4989360;28;20022;-69
2024/02/03 11:02:15;;;;;;;4.50;2.60;;;11.90;97.40;;;;;;4989277;28;20126;-69
2024/02/03 11:04:41;;;;;;;5.75;2.67;;;11.90;97.40;;;;;;4988687;28;20083;-68
2024/02/03 11:07:06;;;;;;;4.10;2.70;;;11.90;97.50;;;;;;4988594;28;20023;-69
2024/02/03 11:09:32;;;;;;;3.80;2.60;;;11.90;97.40;;;;;;4990194;28;20038;-68
2024/02/03 11:11:58;;;;;;;3.88;2.55;;;11.90;97.50;;;;;;4987332;28;20143;-68
2024/02/03 11:14:27;;;;;;;3.33;2.20;;;11.90;97.40;;;;;;4987626;28;20428;-68
2024/02/03 11:17:06;;;;;;;5.20;2.78;;;11.90;97.40;;;;;;4991272;28;20501;-68
2024/02/03 11:19:33;;;;;;;5.53;2.72;;;11.90;97.40;;;;;;4994080;28;20085;-69
2024/02/03 11:22:00;;;;;;;6.82;3.80;;;11.80;97.50;;;;;;4983081;28;20153;-68
2024/02/03 11:24:27;;;;;;;5.15;2.92;;;11.80;97.80;;;;;;4984947;28;20433;-68
2024/02/03 11:26:56;;;;;;;5.75;2.28;;;11.80;97.80;;;;;;4986334;28;20034;-68
2024/02/03 11:29:22;;;;;;;3.15;2.30;;;11.80;97.80;;;;;;4987975;28;20034;-68
2024/02/03 11:31:55;;;;;;;3.08;2.33;;;11.80;97.80;;;;;;4987527;28;20116;-68
2024/02/03 11:34:27;;;;;;;5.10;2.10;;;11.80;97.80;;;;;;4985965;28;20034;-68
2024/02/03 11:36:54;;;;;;;4.90;2.42;;;11.80;97.80;;;;;;4986942;28;20122;-68
2024/02/03 11:39:36;;;;;;;4.45;2.45;;;11.80;97.80;;;;;;4988243;28;20026;-69
2024/02/03 11:42:06;;;;;;;2.45;1.90;;;11.80;97.90;;;;;;4989282;28;20034;-68
2024/02/03 11:44:58;;;;;;;3.13;1.80;;;11.80;97.80;;;;;;4987848;28;20018;-69
2024/02/03 11:47:24;;;;;;;2.45;1.60;;;11.70;97.90;;;;;;4982509;28;20043;-69
2024/02/03 11:49:51;;;;;;;2.90;1.90;;;11.70;97.90;;;;;;4986720;28;21243;-68
2024/02/03 11:52:17;;;;;;;3.67;1.70;;;11.70;98.00;;;;;;4984720;28;20084;-68
2024/02/03 11:54:43;;;;;;;3.28;2.00;;;11.70;98.10;;;;;;4987496;28;20049;-69
2024/02/03 11:57:09;;;;;;;3.88;2.50;;;11.70;98.10;;;;;;4988150;28;20088;-69
2024/02/03 11:59:34;;;;;;;2.45;1.77;;;11.70;98.10;;;;;;4988773;28;20120;-69
2024/02/03 12:02:00;;;;;;;3.17;2.13;;;11.60;98.20;;;;;;4985950;28;20030;-69
2024/02/03 12:04:27;;;;;;;1.70;1.50;;;11.60;98.30;;;;;;4991288;28;20029;-69
2024/02/03 12:06:55;;;;;;;2.38;1.52;;;11.60;98.40;;;;;;4986096;28;20030;-69
2024/02/03 12:09:20;;;;;;;4.03;1.60;;;11.60;98.40;;;;;;4987766;28;20467;-69
2024/02/03 12:11:49;;;;;;;1.35;1.20;;;11.70;98.40;;;;;;4987063;28;20160;-69
2024/02/03 12:14:15;;;;;;;2.33;1.42;;;11.70;98.40;;;;;;4985486;28;20057;-69
2024/02/03 12:16:45;;;;;;;4.47;1.75;;;11.70;98.40;;;;;;4986974;28;20540;-69
2024/02/03 12:19:11;;;;;;;2.53;1.75;;;11.60;98.40;;;;;;4990468;28;20026;-68
2024/02/03 12:21:38;;;;;;;2.70;1.55;;;11.70;98.50;;;;;;4989340;28;20620;-69
2024/02/03 12:24:05;;;;;;;2.13;1.42;;;11.70;98.50;;;;;;4988632;28;20113;-69
2024/02/03 12:26:30;;;;;;;3.33;1.80;;;11.70;98.50;;;;;;4989339;28;20496;-69
2024/02/03 12:28:56;;;;;;;3.20;1.73;;;11.60;98.50;;;;;;4989300;28;20029;-69
2024/02/03 12:31:21;;;;;;;2.88;1.70;;;11.70;98.60;;;;;;4991221;28;20113;-68
2024/02/03 12:33:48;;;;;;;2.15;1.42;;;11.70;98.60;;;;;;4988074;28;20022;-68
2024/02/03 12:36:14;;;;;;;1.70;1.55;;;11.70;98.60;;;;;;4986285;28;20046;-68
2024/02/03 12:38:40;;;;;;;2.10;1.50;;;11.70;98.50;;;;;;4988149;28;20018;-68
2024/02/03 12:41:06;;;;;;;3.65;1.75;;;11.80;98.50;;;;;;4986314;28;20042;-68
2024/02/03 12:43:32;;;;;;;2.58;1.67;;;11.80;98.50;;;;;;4991068;28;20033;-68